sensor_id;sensor_type;location;lat;lon;timestamp;temperature;humidity
5960;DHT22;3006;50.956;7.002;2024-01-25T00:01:11;9.00;86.00
5960;DHT22;3006;50.956;7.002;2024-01-25T00:03:43;9.10;85.90
5960;DHT22;3006;50.956;7.002;2024-01-25T00:06:11;9.00;86.20
5960;DHT22;3006;50.956;7.002;2024-01-25T00:08:39;9.10;86.00
5960;DHT22;3006;50.956;7.002;2024-01-25T00:11:08;9.00;86.10
5960;DHT22;3006;50.956;7.002;2024-01-25T00:13:37;9.10;86.10
5960;DHT22;3006;50.956;7.002;2024-01-25T00:16:06;9.00;86.20
5960;DHT22;3006;50.956;7.002;2024-01-25T00:18:36;9.00;86.30
5960;DHT22;3006;50.956;7.002;2024-01-25T00:21:04;9.00;86.50
5960;DHT22;3006;50.956;7.002;2024-01-25T00:23:36;9.00;86.50
5960;DHT22;3006;50.956;7.002;2024-01-25T00:26:04;9.00;86.30
5960;DHT22;3006;50.956;7.002;2024-01-25T00:28:32;9.10;86.30
5960;DHT22;3006;50.956;7.002;2024-01-25T00:31:01;9.10;86.30
5960;DHT22;3006;50.956;7.002;2024-01-25T00:33:30;9.10;86.50
5960;DHT22;3006;50.956;7.002;2024-01-25T00:36:01;9.00;86.80
5960;DHT22;3006;50.956;7.002;2024-01-25T00:38:30;9.00;86.90
5960;DHT22;3006;50.956;7.002;2024-01-25T00:41:02;9.00;86.90
5960;DHT22;3006;50.956;7.002;2024-01-25T00:43:32;9.00;86.80
5960;DHT22;3006;50.956;7.002;2024-01-25T00:46:01;9.00;87.00
5960;DHT22;3006;50.956;7.002;2024-01-25T00:48:29;9.00;87.10
5960;DHT22;3006;50.956;7.002;2024-01-25T00:51:00;9.00;86.90
5960;DHT22;3006;50.956;7.002;2024-01-25T00:53:28;9.00;87.10
5960;DHT22;3006;50.956;7.002;2024-01-25T00:56:03;9.00;87.20
5960;DHT22;3006;50.956;7.002;2024-01-25T00:58:32;8.80;87.80
5960;DHT22;3006;50.956;7.002;2024-01-25T01:01:00;8.90;87.80
5960;DHT22;3006;50.956;7.002;2024-01-25T01:03:30;8.90;87.70
5960;DHT22;3006;50.956;7.002;2024-01-25T01:06:00;8.90;87.80
5960;DHT22;3006;50.956;7.002;2024-01-25T01:08:29;8.90;87.90
5960;DHT22;3006;50.956;7.002;2024-01-25T01:10:58;8.80;88.30
5960;DHT22;3006;50.956;7.002;2024-01-25T01:13:26;8.80;88.40
5960;DHT22;3006;50.956;7.002;2024-01-25T01:15:55;8.80;88.60
5960;DHT22;3006;50.956;7.002;2024-01-25T01:18:23;8.70;88.60
5960;DHT22;3006;50.956;7.002;2024-01-25T01:20:51;8.60;89.00
5960;DHT22;3006;50.956;7.002;2024-01-25T01:23:21;8.50;89.30
5960;DHT22;3006;50.956;7.002;2024-01-25T01:25:49;8.50;89.50
5960;DHT22;3006;50.956;7.002;2024-01-25T01:28:18;8.50;89.80
5960;DHT22;3006;50.956;7.002;2024-01-25T01:30:46;8.50;89.60
5960;DHT22;3006;50.956;7.002;2024-01-25T01:33:14;8.50;89.50
5960;DHT22;3006;50.956;7.002;2024-01-25T01:35:42;8.50;89.70
5960;DHT22;3006;50.956;7.002;2024-01-25T01:38:11;8.50;89.60
5960;DHT22;3006;50.956;7.002;2024-01-25T01:40:41;8.40;89.90
5960;DHT22;3006;50.956;7.002;2024-01-25T01:43:17;8.40;89.70
5960;DHT22;3006;50.956;7.002;2024-01-25T01:45:46;8.40;90.00
5960;DHT22;3006;50.956;7.002;2024-01-25T01:48:14;8.30;90.00
5960;DHT22;3006;50.956;7.002;2024-01-25T01:50:44;8.30;90.00
5960;DHT22;3006;50.956;7.002;2024-01-25T01:53:13;8.30;90.30
5960;DHT22;3006;50.956;7.002;2024-01-25T01:55:43;8.30;90.10
5960;DHT22;3006;50.956;7.002;2024-01-25T01:58:11;8.30;90.20
5960;DHT22;3006;50.956;7.002;2024-01-25T02:00:41;8.20;90.20
5960;DHT22;3006;50.956;7.002;2024-01-25T02:03:10;8.20;90.30
5960;DHT22;3006;50.956;7.002;2024-01-25T02:05:39;8.10;90.60
5960;DHT22;3006;50.956;7.002;2024-01-25T02:08:07;8.20;90.60
5960;DHT22;3006;50.956;7.002;2024-01-25T02:10:36;8.10;90.50
5960;DHT22;3006;50.956;7.002;2024-01-25T02:13:06;8.10;90.60
5960;DHT22;3006;50.956;7.002;2024-01-25T02:15:34;8.20;90.50
5960;DHT22;3006;50.956;7.002;2024-01-25T02:18:03;8.10;90.60
5960;DHT22;3006;50.956;7.002;2024-01-25T02:20:31;8.10;90.70
5960;DHT22;3006;50.956;7.002;2024-01-25T02:23:01;8.10;90.90
5960;DHT22;3006;50.956;7.002;2024-01-25T02:25:31;8.10;90.80
5960;DHT22;3006;50.956;7.002;2024-01-25T02:27:59;8.00;91.20
5960;DHT22;3006;50.956;7.002;2024-01-25T02:30:27;8.00;91.30
5960;DHT22;3006;50.956;7.002;2024-01-25T02:32:55;8.00;91.50
5960;DHT22;3006;50.956;7.002;2024-01-25T02:35:24;8.00;91.40
5960;DHT22;3006;50.956;7.002;2024-01-25T02:37:53;8.00;91.40
5960;DHT22;3006;50.956;7.002;2024-01-25T02:40:23;8.10;91.20
5960;DHT22;3006;50.956;7.002;2024-01-25T02:42:51;8.00;91.50
5960;DHT22;3006;50.956;7.002;2024-01-25T02:45:20;8.00;91.50
5960;DHT22;3006;50.956;7.002;2024-01-25T02:47:48;8.10;91.30
5960;DHT22;3006;50.956;7.002;2024-01-25T02:50:16;8.00;91.50
5960;DHT22;3006;50.956;7.002;2024-01-25T02:52:45;8.00;91.90
5960;DHT22;3006;50.956;7.002;2024-01-25T02:55:13;7.90;92.20
5960;DHT22;3006;50.956;7.002;2024-01-25T02:57:43;8.00;92.00
5960;DHT22;3006;50.956;7.002;2024-01-25T03:00:11;8.10;91.50
5960;DHT22;3006;50.956;7.002;2024-01-25T03:02:40;8.00;91.40
5960;DHT22;3006;50.956;7.002;2024-01-25T03:05:08;8.00;92.00
5960;DHT22;3006;50.956;7.002;2024-01-25T03:07:36;8.00;92.00
5960;DHT22;3006;50.956;7.002;2024-01-25T03:10:05;8.00;92.20
5960;DHT22;3006;50.956;7.002;2024-01-25T03:12:34;8.00;91.90
5960;DHT22;3006;50.956;7.002;2024-01-25T03:15:05;8.00;92.00
5960;DHT22;3006;50.956;7.002;2024-01-25T03:17:33;8.00;92.10
5960;DHT22;3006;50.956;7.002;2024-01-25T03:20:01;8.00;92.10
5960;DHT22;3006;50.956;7.002;2024-01-25T03:22:31;7.90;92.50
5960;DHT22;3006;50.956;7.002;2024-01-25T03:25:02;7.80;92.90
5960;DHT22;3006;50.956;7.002;2024-01-25T03:27:30;7.80;93.30
5960;DHT22;3006;50.956;7.002;2024-01-25T03:29:58;7.80;93.40
5960;DHT22;3006;50.956;7.002;2024-01-25T03:32:28;7.80;93.20
5960;DHT22;3006;50.956;7.002;2024-01-25T03:34:58;7.80;93.30
5960;DHT22;3006;50.956;7.002;2024-01-25T03:37:27;7.80;93.20
5960;DHT22;3006;50.956;7.002;2024-01-25T03:39:55;7.80;93.30
5960;DHT22;3006;50.956;7.002;2024-01-25T03:42:23;7.70;93.50
5960;DHT22;3006;50.956;7.002;2024-01-25T03:44:52;7.70;93.40
5960;DHT22;3006;50.956;7.002;2024-01-25T03:47:20;7.60;93.60
5960;DHT22;3006;50.956;7.002;2024-01-25T03:49:50;7.60;93.90
5960;DHT22;3006;50.956;7.002;2024-01-25T03:52:18;7.50;94.30
5960;DHT22;3006;50.956;7.002;2024-01-25T03:54:47;7.50;94.20
5960;DHT22;3006;50.956;7.002;2024-01-25T03:57:15;7.50;94.40
5960;DHT22;3006;50.956;7.002;2024-01-25T03:59:43;7.50;94.20
5960;DHT22;3006;50.956;7.002;2024-01-25T04:02:11;7.50;94.00
5960;DHT22;3006;50.956;7.002;2024-01-25T04:04:40;7.50;94.00
5960;DHT22;3006;50.956;7.002;2024-01-25T04:07:09;7.50;94.00
5960;DHT22;3006;50.956;7.002;2024-01-25T04:09:38;7.60;93.70
5960;DHT22;3006;50.956;7.002;2024-01-25T04:12:07;7.50;93.90
5960;DHT22;3006;50.956;7.002;2024-01-25T04:14:35;7.50;94.10
5960;DHT22;3006;50.956;7.002;2024-01-25T04:17:03;7.50;94.30
5960;DHT22;3006;50.956;7.002;2024-01-25T04:19:31;7.50;94.50
5960;DHT22;3006;50.956;7.002;2024-01-25T04:22:00;7.50;94.50
5960;DHT22;3006;50.956;7.002;2024-01-25T04:24:30;7.50;94.40
5960;DHT22;3006;50.956;7.002;2024-01-25T04:26:58;7.50;94.30
5960;DHT22;3006;50.956;7.002;2024-01-25T04:29:26;7.40;94.80
5960;DHT22;3006;50.956;7.002;2024-01-25T04:31:54;7.40;95.00
5960;DHT22;3006;50.956;7.002;2024-01-25T04:34:23;7.40;95.30
5960;DHT22;3006;50.956;7.002;2024-01-25T04:36:51;7.40;95.10
5960;DHT22;3006;50.956;7.002;2024-01-25T04:39:19;7.40;95.00
5960;DHT22;3006;50.956;7.002;2024-01-25T04:41:50;7.40;94.80
5960;DHT22;3006;50.956;7.002;2024-01-25T04:44:18;7.40;95.10
5960;DHT22;3006;50.956;7.002;2024-01-25T04:46:46;7.20;95.20
5960;DHT22;3006;50.956;7.002;2024-01-25T04:49:15;7.20;95.40
5960;DHT22;3006;50.956;7.002;2024-01-25T04:51:44;7.20;95.60
5960;DHT22;3006;50.956;7.002;2024-01-25T04:54:13;7.20;95.70
5960;DHT22;3006;50.956;7.002;2024-01-25T04:56:42;7.20;95.50
5960;DHT22;3006;50.956;7.002;2024-01-25T04:59:12;7.10;95.90
5960;DHT22;3006;50.956;7.002;2024-01-25T05:01:40;7.00;96.00
5960;DHT22;3006;50.956;7.002;2024-01-25T05:04:16;7.00;96.10
5960;DHT22;3006;50.956;7.002;2024-01-25T05:06:44;7.00;96.70
5960;DHT22;3006;50.956;7.002;2024-01-25T05:09:12;7.00;97.10
5960;DHT22;3006;50.956;7.002;2024-01-25T05:11:41;7.00;97.00
5960;DHT22;3006;50.956;7.002;2024-01-25T05:14:09;7.00;96.70
5960;DHT22;3006;50.956;7.002;2024-01-25T05:16:39;7.00;96.70
5960;DHT22;3006;50.956;7.002;2024-01-25T05:19:07;6.90;96.80
5960;DHT22;3006;50.956;7.002;2024-01-25T05:21:35;6.90;97.10
5960;DHT22;3006;50.956;7.002;2024-01-25T05:24:04;6.80;97.30
5960;DHT22;3006;50.956;7.002;2024-01-25T05:26:33;6.80;97.30
5960;DHT22;3006;50.956;7.002;2024-01-25T05:29:01;6.90;97.10
5960;DHT22;3006;50.956;7.002;2024-01-25T05:31:29;6.90;96.70
5960;DHT22;3006;50.956;7.002;2024-01-25T05:33:59;7.00;96.80
5960;DHT22;3006;50.956;7.002;2024-01-25T05:36:27;7.00;96.80
5960;DHT22;3006;50.956;7.002;2024-01-25T05:38:56;6.90;96.50
5960;DHT22;3006;50.956;7.002;2024-01-25T05:41:24;6.90;96.90
5960;DHT22;3006;50.956;7.002;2024-01-25T05:43:52;6.90;96.70
5960;DHT22;3006;50.956;7.002;2024-01-25T05:46:21;6.80;96.80
5960;DHT22;3006;50.956;7.002;2024-01-25T05:48:49;6.90;97.00
5960;DHT22;3006;50.956;7.002;2024-01-25T05:51:19;6.90;96.80
5960;DHT22;3006;50.956;7.002;2024-01-25T05:53:48;6.80;96.50
5960;DHT22;3006;50.956;7.002;2024-01-25T05:56:16;6.80;96.70
5960;DHT22;3006;50.956;7.002;2024-01-25T05:58:44;6.90;96.80
5960;DHT22;3006;50.956;7.002;2024-01-25T06:01:12;6.90;96.60
5960;DHT22;3006;50.956;7.002;2024-01-25T06:03:40;6.70;96.70
5960;DHT22;3006;50.956;7.002;2024-01-25T06:06:08;6.70;97.20
5960;DHT22;3006;50.956;7.002;2024-01-25T06:08:38;6.70;97.00
5960;DHT22;3006;50.956;7.002;2024-01-25T06:11:06;6.80;96.30
5960;DHT22;3006;50.956;7.002;2024-01-25T06:13:36;6.80;96.20
5960;DHT22;3006;50.956;7.002;2024-01-25T06:16:05;6.80;96.10
5960;DHT22;3006;50.956;7.002;2024-01-25T06:18:33;6.80;96.20
5960;DHT22;3006;50.956;7.002;2024-01-25T06:21:02;6.70;96.20
5960;DHT22;3006;50.956;7.002;2024-01-25T06:23:30;6.70;96.50
5960;DHT22;3006;50.956;7.002;2024-01-25T06:26:00;6.70;96.30
5960;DHT22;3006;50.956;7.002;2024-01-25T06:28:29;6.70;96.50
5960;DHT22;3006;50.956;7.002;2024-01-25T06:31:01;6.70;96.40
5960;DHT22;3006;50.956;7.002;2024-01-25T06:33:29;6.70;96.20
5960;DHT22;3006;50.956;7.002;2024-01-25T06:35:59;6.80;96.00
5960;DHT22;3006;50.956;7.002;2024-01-25T06:38:27;6.80;95.90
5960;DHT22;3006;50.956;7.002;2024-01-25T06:40:56;6.80;95.70
5960;DHT22;3006;50.956;7.002;2024-01-25T06:43:25;6.70;95.60
5960;DHT22;3006;50.956;7.002;2024-01-25T06:45:54;6.70;96.20
5960;DHT22;3006;50.956;7.002;2024-01-25T06:48:22;6.70;96.20
5960;DHT22;3006;50.956;7.002;2024-01-25T06:50:50;6.70;96.10
5960;DHT22;3006;50.956;7.002;2024-01-25T06:53:20;6.80;95.90
5960;DHT22;3006;50.956;7.002;2024-01-25T06:55:48;6.70;96.10
5960;DHT22;3006;50.956;7.002;2024-01-25T06:58:17;6.80;96.00
5960;DHT22;3006;50.956;7.002;2024-01-25T07:00:47;6.80;95.80
5960;DHT22;3006;50.956;7.002;2024-01-25T07:03:16;6.70;96.00
5960;DHT22;3006;50.956;7.002;2024-01-25T07:05:45;6.70;96.20
5960;DHT22;3006;50.956;7.002;2024-01-25T07:08:13;6.70;96.40
5960;DHT22;3006;50.956;7.002;2024-01-25T07:10:43;6.70;96.60
5960;DHT22;3006;50.956;7.002;2024-01-25T07:13:12;6.90;99.90
5960;DHT22;3006;50.956;7.002;2024-01-25T07:15:40;7.40;96.40
5960;DHT22;3006;50.956;7.002;2024-01-25T07:18:10;7.20;95.50
5960;DHT22;3006;50.956;7.002;2024-01-25T07:20:39;7.30;95.20
5960;DHT22;3006;50.956;7.002;2024-01-25T07:23:07;7.20;94.90
5960;DHT22;3006;50.956;7.002;2024-01-25T07:25:35;7.20;95.70
5960;DHT22;3006;50.956;7.002;2024-01-25T07:28:04;7.00;95.60
5960;DHT22;3006;50.956;7.002;2024-01-25T07:30:32;7.00;95.70
5960;DHT22;3006;50.956;7.002;2024-01-25T07:33:00;6.90;96.20
5960;DHT22;3006;50.956;7.002;2024-01-25T07:35:32;6.80;95.90
5960;DHT22;3006;50.956;7.002;2024-01-25T07:38:00;6.60;96.70
5960;DHT22;3006;50.956;7.002;2024-01-25T07:40:28;6.50;97.30
5960;DHT22;3006;50.956;7.002;2024-01-25T07:42:57;6.50;97.90
5960;DHT22;3006;50.956;7.002;2024-01-25T07:45:25;6.60;97.30
5960;DHT22;3006;50.956;7.002;2024-01-25T07:47:53;6.50;97.40
5960;DHT22;3006;50.956;7.002;2024-01-25T07:50:36;6.50;97.80
5960;DHT22;3006;50.956;7.002;2024-01-25T07:53:04;6.40;97.80
5960;DHT22;3006;50.956;7.002;2024-01-25T07:55:32;6.40;98.20
5960;DHT22;3006;50.956;7.002;2024-01-25T07:58:01;6.40;97.70
5960;DHT22;3006;50.956;7.002;2024-01-25T08:00:29;6.40;97.90
5960;DHT22;3006;50.956;7.002;2024-01-25T08:02:58;6.40;98.10
5960;DHT22;3006;50.956;7.002;2024-01-25T08:05:26;6.30;98.60
5960;DHT22;3006;50.956;7.002;2024-01-25T08:08:08;6.40;98.60
5960;DHT22;3006;50.956;7.002;2024-01-25T08:10:37;6.50;98.90
5960;DHT22;3006;50.956;7.002;2024-01-25T08:13:05;6.50;98.70
5960;DHT22;3006;50.956;7.002;2024-01-25T08:15:34;6.70;98.50
5960;DHT22;3006;50.956;7.002;2024-01-25T08:18:02;6.70;98.10
5960;DHT22;3006;50.956;7.002;2024-01-25T08:20:31;6.80;98.00
5960;DHT22;3006;50.956;7.002;2024-01-25T08:22:59;6.80;97.90
5960;DHT22;3006;50.956;7.002;2024-01-25T08:25:31;6.90;97.80
5960;DHT22;3006;50.956;7.002;2024-01-25T08:27:59;6.90;97.60
5960;DHT22;3006;50.956;7.002;2024-01-25T08:30:28;6.90;97.80
5960;DHT22;3006;50.956;7.002;2024-01-25T08:32:56;6.90;98.10
5960;DHT22;3006;50.956;7.002;2024-01-25T08:35:24;7.00;97.90
5960;DHT22;3006;50.956;7.002;2024-01-25T08:37:52;7.00;97.50
5960;DHT22;3006;50.956;7.002;2024-01-25T08:40:21;7.00;97.70
5960;DHT22;3006;50.956;7.002;2024-01-25T08:42:52;6.90;98.30
5960;DHT22;3006;50.956;7.002;2024-01-25T08:45:20;6.90;98.50
5960;DHT22;3006;50.956;7.002;2024-01-25T08:47:49;7.00;98.30
5960;DHT22;3006;50.956;7.002;2024-01-25T08:50:19;7.10;97.70
5960;DHT22;3006;50.956;7.002;2024-01-25T08:52:49;7.20;97.40
5960;DHT22;3006;50.956;7.002;2024-01-25T08:55:18;7.20;97.30
5960;DHT22;3006;50.956;7.002;2024-01-25T08:57:46;7.20;97.10
5960;DHT22;3006;50.956;7.002;2024-01-25T09:00:16;7.30;97.10
5960;DHT22;3006;50.956;7.002;2024-01-25T09:02:45;7.40;96.60
5960;DHT22;3006;50.956;7.002;2024-01-25T09:05:13;7.40;96.20
5960;DHT22;3006;50.956;7.002;2024-01-25T09:07:42;7.50;95.90
5960;DHT22;3006;50.956;7.002;2024-01-25T09:10:10;7.50;95.70
5960;DHT22;3006;50.956;7.002;2024-01-25T09:12:39;7.50;95.90
5960;DHT22;3006;50.956;7.002;2024-01-25T09:15:08;7.50;95.70
5960;DHT22;3006;50.956;7.002;2024-01-25T09:17:40;7.50;95.50
5960;DHT22;3006;50.956;7.002;2024-01-25T09:20:09;7.50;95.50
5960;DHT22;3006;50.956;7.002;2024-01-25T09:22:40;7.50;95.30
5960;DHT22;3006;50.956;7.002;2024-01-25T09:25:09;7.50;95.60
5960;DHT22;3006;50.956;7.002;2024-01-25T09:27:37;7.50;95.90
5960;DHT22;3006;50.956;7.002;2024-01-25T09:30:08;7.50;95.40
5960;DHT22;3006;50.956;7.002;2024-01-25T09:32:38;7.60;94.60
5960;DHT22;3006;50.956;7.002;2024-01-25T09:35:08;7.50;94.90
5960;DHT22;3006;50.956;7.002;2024-01-25T09:37:36;7.60;95.00
5960;DHT22;3006;50.956;7.002;2024-01-25T09:40:06;7.70;94.50
5960;DHT22;3006;50.956;7.002;2024-01-25T09:42:35;7.80;94.30
5960;DHT22;3006;50.956;7.002;2024-01-25T09:45:06;7.80;93.50
5960;DHT22;3006;50.956;7.002;2024-01-25T09:47:35;7.80;93.40
5960;DHT22;3006;50.956;7.002;2024-01-25T09:50:07;7.90;93.10
5960;DHT22;3006;50.956;7.002;2024-01-25T09:52:36;7.90;93.50
5960;DHT22;3006;50.956;7.002;2024-01-25T09:55:07;7.80;93.70
5960;DHT22;3006;50.956;7.002;2024-01-25T09:57:36;7.80;93.40
5960;DHT22;3006;50.956;7.002;2024-01-25T10:00:06;7.80;93.60
5960;DHT22;3006;50.956;7.002;2024-01-25T10:02:38;7.80;93.90
5960;DHT22;3006;50.956;7.002;2024-01-25T10:05:08;7.80;93.70
5960;DHT22;3006;50.956;7.002;2024-01-25T10:07:38;7.80;93.70
5960;DHT22;3006;50.956;7.002;2024-01-25T10:10:08;8.00;93.20
5960;DHT22;3006;50.956;7.002;2024-01-25T10:12:37;8.00;92.30
5960;DHT22;3006;50.956;7.002;2024-01-25T10:15:06;8.20;92.60
5960;DHT22;3006;50.956;7.002;2024-01-25T10:17:35;8.20;92.00
5960;DHT22;3006;50.956;7.002;2024-01-25T10:20:08;8.20;91.70
5960;DHT22;3006;50.956;7.002;2024-01-25T10:22:38;8.20;92.10
5960;DHT22;3006;50.956;7.002;2024-01-25T10:25:12;8.20;91.90
5960;DHT22;3006;50.956;7.002;2024-01-25T10:27:41;8.20;92.20
5960;DHT22;3006;50.956;7.002;2024-01-25T10:30:10;8.10;92.00
5960;DHT22;3006;50.956;7.002;2024-01-25T10:32:40;8.00;92.50
5960;DHT22;3006;50.956;7.002;2024-01-25T10:35:11;8.00;93.10
5960;DHT22;3006;50.956;7.002;2024-01-25T10:37:40;8.10;92.00
5960;DHT22;3006;50.956;7.002;2024-01-25T10:40:10;8.20;91.30
5960;DHT22;3006;50.956;7.002;2024-01-25T10:42:38;8.30;90.70
5960;DHT22;3006;50.956;7.002;2024-01-25T10:45:08;8.30;90.00
5960;DHT22;3006;50.956;7.002;2024-01-25T10:47:37;8.40;89.60
5960;DHT22;3006;50.956;7.002;2024-01-25T10:50:09;8.40;90.20
5960;DHT22;3006;50.956;7.002;2024-01-25T10:52:41;8.30;89.90
5960;DHT22;3006;50.956;7.002;2024-01-25T10:55:11;8.40;89.90
5960;DHT22;3006;50.956;7.002;2024-01-25T10:57:43;8.40;89.20
5960;DHT22;3006;50.956;7.002;2024-01-25T11:00:13;8.40;89.80
5960;DHT22;3006;50.956;7.002;2024-01-25T11:02:45;8.40;90.50
5960;DHT22;3006;50.956;7.002;2024-01-25T11:05:16;8.40;90.20
5960;DHT22;3006;50.956;7.002;2024-01-25T11:07:47;8.40;88.90
5960;DHT22;3006;50.956;7.002;2024-01-25T11:10:17;8.30;89.30
5960;DHT22;3006;50.956;7.002;2024-01-25T11:12:49;8.40;89.60
5960;DHT22;3006;50.956;7.002;2024-01-25T11:15:21;8.40;89.70
5960;DHT22;3006;50.956;7.002;2024-01-25T11:17:56;8.60;88.90
5960;DHT22;3006;50.956;7.002;2024-01-25T11:20:27;8.60;87.90
5960;DHT22;3006;50.956;7.002;2024-01-25T11:22:57;8.50;88.10
5960;DHT22;3006;50.956;7.002;2024-01-25T11:25:30;8.60;88.60
5960;DHT22;3006;50.956;7.002;2024-01-25T11:27:59;8.60;88.10
5960;DHT22;3006;50.956;7.002;2024-01-25T11:30:29;8.70;87.50
5960;DHT22;3006;50.956;7.002;2024-01-25T11:32:58;8.90;86.30
5960;DHT22;3006;50.956;7.002;2024-01-25T11:35:27;9.00;85.60
5960;DHT22;3006;50.956;7.002;2024-01-25T11:37:56;9.00;85.00
5960;DHT22;3006;50.956;7.002;2024-01-25T11:40:24;9.00;84.80
5960;DHT22;3006;50.956;7.002;2024-01-25T11:42:53;9.10;85.00
5960;DHT22;3006;50.956;7.002;2024-01-25T11:45:21;9.20;84.80
5960;DHT22;3006;50.956;7.002;2024-01-25T11:47:51;9.20;83.70
5960;DHT22;3006;50.956;7.002;2024-01-25T11:50:19;9.30;83.60
5960;DHT22;3006;50.956;7.002;2024-01-25T11:52:51;9.40;83.50
5960;DHT22;3006;50.956;7.002;2024-01-25T11:55:22;9.40;83.30
5960;DHT22;3006;50.956;7.002;2024-01-25T11:57:50;9.50;83.40
5960;DHT22;3006;50.956;7.002;2024-01-25T12:00:19;9.40;83.20
5960;DHT22;3006;50.956;7.002;2024-01-25T12:02:47;9.60;82.40
5960;DHT22;3006;50.956;7.002;2024-01-25T12:05:15;9.50;81.90
5960;DHT22;3006;50.956;7.002;2024-01-25T12:07:44;9.50;81.30
5960;DHT22;3006;50.956;7.002;2024-01-25T12:10:16;9.50;81.50
5960;DHT22;3006;50.956;7.002;2024-01-25T12:12:45;9.60;80.40
5960;DHT22;3006;50.956;7.002;2024-01-25T12:15:14;9.60;80.70
5960;DHT22;3006;50.956;7.002;2024-01-25T12:17:43;9.60;79.60
5960;DHT22;3006;50.956;7.002;2024-01-25T12:20:12;9.70;79.90
5960;DHT22;3006;50.956;7.002;2024-01-25T12:22:40;9.70;79.30
5960;DHT22;3006;50.956;7.002;2024-01-25T12:25:10;9.70;78.40
5960;DHT22;3006;50.956;7.002;2024-01-25T12:27:42;9.60;78.20
5960;DHT22;3006;50.956;7.002;2024-01-25T12:30:12;9.60;77.70
5960;DHT22;3006;50.956;7.002;2024-01-25T12:32:41;9.60;78.10
5960;DHT22;3006;50.956;7.002;2024-01-25T12:35:09;9.70;78.20
5960;DHT22;3006;50.956;7.002;2024-01-25T12:37:38;9.80;78.10
5960;DHT22;3006;50.956;7.002;2024-01-25T12:40:07;9.80;77.50
5960;DHT22;3006;50.956;7.002;2024-01-25T12:42:36;9.80;77.10
5960;DHT22;3006;50.956;7.002;2024-01-25T12:45:07;10.00;76.80
5960;DHT22;3006;50.956;7.002;2024-01-25T12:47:35;10.00;76.80
5960;DHT22;3006;50.956;7.002;2024-01-25T12:50:04;10.00;76.10
5960;DHT22;3006;50.956;7.002;2024-01-25T12:52:32;10.00;76.00
5960;DHT22;3006;50.956;7.002;2024-01-25T12:55:01;9.80;76.40
5960;DHT22;3006;50.956;7.002;2024-01-25T12:57:30;10.00;76.20
5960;DHT22;3006;50.956;7.002;2024-01-25T12:59:58;9.90;75.40
5960;DHT22;3006;50.956;7.002;2024-01-25T13:02:29;9.90;75.50
5960;DHT22;3006;50.956;7.002;2024-01-25T13:04:58;9.90;75.60
5960;DHT22;3006;50.956;7.002;2024-01-25T13:07:27;9.80;75.20
5960;DHT22;3006;50.956;7.002;2024-01-25T13:09:55;9.80;75.80
5960;DHT22;3006;50.956;7.002;2024-01-25T13:12:23;9.80;76.90
5960;DHT22;3006;50.956;7.002;2024-01-25T13:14:52;9.90;77.00
5960;DHT22;3006;50.956;7.002;2024-01-25T13:17:20;9.80;76.80
5960;DHT22;3006;50.956;7.002;2024-01-25T13:19:52;9.90;75.80
5960;DHT22;3006;50.956;7.002;2024-01-25T13:22:20;10.00;75.70
5960;DHT22;3006;50.956;7.002;2024-01-25T13:24:49;10.00;75.50
5960;DHT22;3006;50.956;7.002;2024-01-25T13:27:17;10.00;76.30
5960;DHT22;3006;50.956;7.002;2024-01-25T13:29:46;10.00;77.90
5960;DHT22;3006;50.956;7.002;2024-01-25T13:32:14;10.10;76.80
5960;DHT22;3006;50.956;7.002;2024-01-25T13:34:42;10.10;75.80
5960;DHT22;3006;50.956;7.002;2024-01-25T13:37:11;10.20;75.00
5960;DHT22;3006;50.956;7.002;2024-01-25T13:39:39;10.20;75.10
5960;DHT22;3006;50.956;7.002;2024-01-25T13:42:08;10.20;75.30
5960;DHT22;3006;50.956;7.002;2024-01-25T13:44:36;10.10;75.70
5960;DHT22;3006;50.956;7.002;2024-01-25T13:47:05;10.20;75.50
5960;DHT22;3006;50.956;7.002;2024-01-25T13:49:33;10.20;76.20
5960;DHT22;3006;50.956;7.002;2024-01-25T13:52:02;10.20;75.60
5960;DHT22;3006;50.956;7.002;2024-01-25T13:54:32;10.20;75.20
5960;DHT22;3006;50.956;7.002;2024-01-25T13:57:00;10.10;75.60
5960;DHT22;3006;50.956;7.002;2024-01-25T13:59:28;10.00;76.40
5960;DHT22;3006;50.956;7.002;2024-01-25T14:01:57;10.00;75.70
5960;DHT22;3006;50.956;7.002;2024-01-25T14:04:25;10.00;76.30
5960;DHT22;3006;50.956;7.002;2024-01-25T14:06:53;10.00;75.90
5960;DHT22;3006;50.956;7.002;2024-01-25T14:09:22;10.10;75.30
5960;DHT22;3006;50.956;7.002;2024-01-25T14:11:51;10.10;75.90
5960;DHT22;3006;50.956;7.002;2024-01-25T14:14:19;10.10;75.30
5960;DHT22;3006;50.956;7.002;2024-01-25T14:16:47;10.20;74.50
5960;DHT22;3006;50.956;7.002;2024-01-25T14:19:16;10.20;75.00
5960;DHT22;3006;50.956;7.002;2024-01-25T14:21:47;10.30;75.10
5960;DHT22;3006;50.956;7.002;2024-01-25T14:24:37;10.30;75.00
5960;DHT22;3006;50.956;7.002;2024-01-25T14:27:07;10.30;74.40
5960;DHT22;3006;50.956;7.002;2024-01-25T14:29:36;10.20;75.10
5960;DHT22;3006;50.956;7.002;2024-01-25T14:32:04;10.20;76.10
5960;DHT22;3006;50.956;7.002;2024-01-25T14:34:32;10.20;75.10
5960;DHT22;3006;50.956;7.002;2024-01-25T14:37:02;10.20;74.50
5960;DHT22;3006;50.956;7.002;2024-01-25T14:39:30;10.20;74.20
5960;DHT22;3006;50.956;7.002;2024-01-25T14:41:58;10.20;75.10
5960;DHT22;3006;50.956;7.002;2024-01-25T14:44:28;10.10;75.60
5960;DHT22;3006;50.956;7.002;2024-01-25T14:46:56;10.10;76.20
5960;DHT22;3006;50.956;7.002;2024-01-25T14:49:26;10.10;74.30
5960;DHT22;3006;50.956;7.002;2024-01-25T14:51:54;10.10;75.00
5960;DHT22;3006;50.956;7.002;2024-01-25T14:54:22;10.20;74.30
5960;DHT22;3006;50.956;7.002;2024-01-25T14:56:50;10.20;75.00
5960;DHT22;3006;50.956;7.002;2024-01-25T14:59:19;10.10;75.20
5960;DHT22;3006;50.956;7.002;2024-01-25T15:01:48;10.00;75.20
5960;DHT22;3006;50.956;7.002;2024-01-25T15:04:17;10.00;75.20
5960;DHT22;3006;50.956;7.002;2024-01-25T15:06:46;10.00;76.20
5960;DHT22;3006;50.956;7.002;2024-01-25T15:09:14;10.10;74.80
5960;DHT22;3006;50.956;7.002;2024-01-25T15:11:43;10.20;73.50
5960;DHT22;3006;50.956;7.002;2024-01-25T15:14:13;10.30;72.80
5960;DHT22;3006;50.956;7.002;2024-01-25T15:16:41;10.30;72.60
5960;DHT22;3006;50.956;7.002;2024-01-25T15:19:10;10.30;73.50
5960;DHT22;3006;50.956;7.002;2024-01-25T15:21:39;10.20;73.20
5960;DHT22;3006;50.956;7.002;2024-01-25T15:24:07;10.10;74.70
5960;DHT22;3006;50.956;7.002;2024-01-25T15:26:39;10.10;73.80
5960;DHT22;3006;50.956;7.002;2024-01-25T15:29:07;10.10;74.10
5960;DHT22;3006;50.956;7.002;2024-01-25T15:31:36;10.00;75.50
5960;DHT22;3006;50.956;7.002;2024-01-25T15:34:04;10.00;74.70
5960;DHT22;3006;50.956;7.002;2024-01-25T15:36:34;10.00;74.60
5960;DHT22;3006;50.956;7.002;2024-01-25T15:39:02;10.10;74.30
5960;DHT22;3006;50.956;7.002;2024-01-25T15:41:31;10.10;74.50
5960;DHT22;3006;50.956;7.002;2024-01-25T15:43:59;10.00;75.00
5960;DHT22;3006;50.956;7.002;2024-01-25T15:46:27;10.00;74.20
5960;DHT22;3006;50.956;7.002;2024-01-25T15:48:55;10.00;73.90
5960;DHT22;3006;50.956;7.002;2024-01-25T15:51:24;9.90;75.40
5960;DHT22;3006;50.956;7.002;2024-01-25T15:53:53;9.80;74.90
5960;DHT22;3006;50.956;7.002;2024-01-25T15:56:21;10.00;74.30
5960;DHT22;3006;50.956;7.002;2024-01-25T15:58:50;10.00;74.30
5960;DHT22;3006;50.956;7.002;2024-01-25T16:01:19;10.00;74.70
5960;DHT22;3006;50.956;7.002;2024-01-25T16:03:48;10.00;74.00
5960;DHT22;3006;50.956;7.002;2024-01-25T16:06:16;10.00;73.90
5960;DHT22;3006;50.956;7.002;2024-01-25T16:08:44;10.00;74.20
5960;DHT22;3006;50.956;7.002;2024-01-25T16:11:14;9.90;74.60
5960;DHT22;3006;50.956;7.002;2024-01-25T16:13:42;9.80;74.20
5960;DHT22;3006;50.956;7.002;2024-01-25T16:16:12;9.80;74.30
5960;DHT22;3006;50.956;7.002;2024-01-25T16:18:40;9.80;73.80
5960;DHT22;3006;50.956;7.002;2024-01-25T16:21:08;9.80;73.90
5960;DHT22;3006;50.956;7.002;2024-01-25T16:23:36;9.90;74.40
5960;DHT22;3006;50.956;7.002;2024-01-25T16:26:04;9.80;74.10